Time;durP1;ratioP1;P1;durP2;ratioP2;P2;SDS_P1;SDS_P2;PMS_P1;PMS_P2;Temp;Humidity;BMP_temperature;BMP_pressure;BME280_temperature;BME280_humidity;BME280_pressure;Samples;Min_cycle;Max_cycle;Signal;HPM_P1;HPM_P2
2023/01/11 00:00:40;;;;;;;15.82;2.60;;;22.70;83.10;;;;;;5078071;28;20084;-64
2023/01/11 00:03:07;;;;;;;14.70;2.75;;;22.60;82.90;;;;;;5078559;28;20075;-66
2023/01/11 00:05:41;;;;;;;9.52;2.33;;;22.60;83.10;;;;;;5073802;28;20111;-64
2023/01/11 00:08:08;;;;;;;17.38;3.72;;;22.60;82.30;;;;;;5081485;28;20376;-67
2023/01/11 00:10:34;;;;;;;13.82;2.20;;;22.60;82.30;;;;;;5077390;28;20068;-65
2023/01/11 00:13:02;;;;;;;11.93;2.40;;;22.60;82.70;;;;;;5075512;28;20083;-63
2023/01/11 00:15:28;;;;;;;12.65;2.60;;;22.50;82.90;;;;;;5075468;28;20200;-64
2023/01/11 00:17:56;;;;;;;16.17;2.88;;;22.50;83.80;;;;;;5078511;28;20077;-63
2023/01/11 00:20:23;;;;;;;14.55;3.15;;;22.50;84.40;;;;;;5080913;28;20421;-66
2023/01/11 00:22:50;;;;;;;13.00;3.20;;;22.50;83.60;;;;;;5075356;28;20072;-66
2023/01/11 00:25:17;;;;;;;16.88;3.35;;;22.50;83.50;;;;;;5081721;28;20089;-67
2023/01/11 00:27:46;;;;;;;12.70;2.80;;;22.50;84.20;;;;;;5077668;28;20068;-66
2023/01/11 00:30:12;;;;;;;14.13;3.30;;;22.40;84.70;;;;;;5078656;28;20126;-66
2023/01/11 00:32:39;;;;;;;11.30;3.10;;;22.40;84.60;;;;;;5078799;28;20064;-64
2023/01/11 00:35:06;;;;;;;14.73;3.40;;;22.20;85.20;;;;;;5078224;28;20063;-65
2023/01/11 00:37:33;;;;;;;19.17;3.70;;;22.10;86.00;;;;;;5079739;28;20090;-66
2023/01/11 00:39:59;;;;;;;19.38;3.80;;;22.10;86.80;;;;;;5077024;28;20079;-65
2023/01/11 00:47:56;;;;;;;14.95;3.70;;;21.70;87.20;;;;;;5083303;28;20090;-66
2023/01/11 00:50:30;;;;;;;20.95;3.70;;;21.60;87.70;;;;;;5083591;28;20068;-67
2023/01/11 00:52:59;;;;;;;13.80;4.05;;;21.50;88.20;;;;;;5080309;28;20071;-65
2023/01/11 00:55:26;;;;;;;20.17;4.55;;;21.40;89.20;;;;;;5072190;28;20533;-66
2023/01/11 00:57:53;;;;;;;25.80;5.30;;;21.30;90.10;;;;;;5075587;28;20079;-66
2023/01/11 01:00:21;;;;;;;18.70;5.30;;;21.20;90.50;;;;;;5081883;28;20073;-66
2023/01/11 01:02:48;;;;;;;20.58;5.35;;;21.20;90.90;;;;;;5080546;28;20076;-68
2023/01/11 01:05:16;;;;;;;17.67;5.65;;;21.10;91.10;;;;;;5077866;28;20475;-66
2023/01/11 01:07:43;;;;;;;21.95;6.45;;;21.00;91.30;;;;;;5073928;28;20650;-67
2023/01/11 01:10:12;;;;;;;17.52;6.95;;;20.90;91.60;;;;;;5075143;28;20067;-65
2023/01/11 01:15:23;;;;;;;12.60;6.00;;;20.80;92.20;;;;;;5079491;28;20775;-64
2023/01/11 01:17:53;;;;;;;21.73;5.88;;;20.80;92.30;;;;;;5073216;28;20099;-64
2023/01/11 01:20:21;;;;;;;22.35;5.60;;;20.80;92.20;;;;;;5078587;28;20063;-65
2023/01/11 01:22:48;;;;;;;15.27;4.70;;;20.70;92.00;;;;;;5080263;28;20076;-63
2023/01/11 01:25:15;;;;;;;13.43;3.75;;;20.60;91.40;;;;;;5081554;28;20072;-62
2023/01/11 01:27:41;;;;;;;18.60;2.58;;;20.50;90.80;;;;;;5077389;28;20480;-68
2023/01/11 01:30:09;;;;;;;12.38;2.28;;;20.50;87.90;;;;;;5070223;28;20129;-65
2023/01/11 01:32:35;;;;;;;11.75;1.58;;;;;;;;;;5074162;28;20470;-65
2023/01/11 01:35:02;;;;;;;29.33;1.55;;;;;;;;;;5079470;28;20484;-64
2023/01/11 01:37:28;;;;;;;5.90;1.15;;;;;;;;;;5077419;28;20476;-65
2023/01/11 01:39:55;;;;;;;17.40;5.90;;;;;;;;;;5077461;28;20021;-66
2023/01/11 01:42:22;;;;;;;9.50;1.10;;;;;;;;;;5081268;28;20478;-66
2023/01/11 01:44:53;;;;;;;4.90;1.08;;;20.80;95.90;;;;;;5074174;28;20076;-63
2023/01/11 01:47:21;;;;;;;17.15;1.40;;;;;;;;;;5068895;28;20182;-68
2023/01/11 01:49:48;;;;;;;11.68;0.93;;;19.70;95.90;;;;;;5071774;28;20117;-66
2023/01/11 01:52:14;;;;;;;11.65;1.35;;;20.20;93.80;;;;;;5075085;28;20064;-65
2023/01/11 01:54:45;;;;;;;9.20;1.70;;;19.50;91.70;;;;;;5077408;28;20169;-64
2023/01/11 01:57:18;;;;;;;9.85;1.30;;;;;;;;;;5069127;28;20531;-66
2023/01/11 01:59:50;;;;;;;126.75;8.13;;;19.00;92.10;;;;;;5072328;28;20393;-65
2023/01/11 02:02:17;;;;;;;154.65;7.95;;;;;;;;;;5071481;28;20058;-67
2023/01/11 02:04:46;;;;;;;149.35;7.28;;;19.40;87.10;;;;;;5076080;28;20093;-65
